North Conway, New Hampshire
Current Conditions -  °F | °C
As of 9:54 AM on Monday 24 Nov 2014 (Local Time) from KIZG Reporting Station
Light Rain Light Rain  
Wind Chill:   Ceiling: 300
Heat Index:   Visibility: 1.5mi
Dew Point:   Wind: 0mph
Humidity: 96%   Direction: NA
Pressure: 29.73"   Gusts: NA
Location:  44.05°N, 71.13°W
Report Text: KIZG 241454Z AUTO 00000KT 1 1/2SM -RA BR OVC003 05/04 A2973 RMK AO2 SLP072 P0022 60070 T00500044 56064
Loading
Personal Weather Stations






























Interactive Weather Map New forecast layout! Learn more

10-Day Weather Forecast

Advertisements
Track Severe Weather on mobile